Time;durP1;ratioP1;P1;durP2;ratioP2;P2;SDS_P1;SDS_P2;PMS_P1;PMS_P2;Temp;Humidity;BMP_temperature;BMP_pressure;BME280_temperature;BME280_humidity;BME280_pressure;Samples;Min_cycle;Max_cycle;Signal;HPM_P1;HPM_P2
2022/08/11 00:01:23;;;;;;;2.35;1.30;;;23.00;76.50;;;;;;7337967;19;109729;-77
2022/08/11 00:03:55;;;;;;;6.03;1.40;;;23.00;76.60;;;;;;7338872;19;110712;-78
2022/08/11 00:06:27;;;;;;;5.78;1.48;;;23.00;76.90;;;;;;7338170;19;111154;-78
2022/08/11 00:08:55;;;;;;;3.88;1.25;;;22.90;77.00;;;;;;7338419;19;109692;-78
2022/08/11 00:11:35;;;;;;;7.50;1.40;;;22.90;77.10;;;;;;7334334;19;110562;-78
2022/08/11 00:14:11;;;;;;;2.60;1.40;;;22.80;77.40;;;;;;7336750;19;111330;-78
2022/08/11 00:16:40;;;;;;;6.18;1.40;;;22.80;77.50;;;;;;7335169;19;109817;-79
2022/08/11 00:19:08;;;;;;;4.72;1.60;;;22.80;77.80;;;;;;7338257;19;109671;-78
2022/08/11 00:21:42;;;;;;;2.15;1.40;;;22.70;77.90;;;;;;7342813;19;112449;-78
2022/08/11 00:24:48;;;;;;;7.53;2.00;;;22.70;78.20;;;;;;7337714;19;113883;-79
2022/08/11 00:27:19;;;;;;;3.35;1.50;;;22.60;78.50;;;;;;7337851;19;111167;-79
2022/08/11 00:29:53;;;;;;;3.92;1.70;;;22.60;78.40;;;;;;7335892;19;110828;-79
2022/08/11 00:32:21;;;;;;;5.60;1.63;;;22.60;79.00;;;;;;7336956;19;110504;-79
2022/08/11 00:34:49;;;;;;;7.00;1.98;;;22.50;78.90;;;;;;7335335;19;111137;-78
2022/08/11 00:37:20;;;;;;;4.63;1.42;;;22.50;79.10;;;;;;7337452;19;109838;-80
2022/08/11 00:39:52;;;;;;;2.20;1.40;;;22.50;79.30;;;;;;7337913;19;110888;-78
2022/08/11 00:42:49;;;;;;;6.13;1.50;;;22.50;79.50;;;;;;7335506;19;110926;-78
2022/08/11 00:45:42;;;;;;;5.97;1.45;;;22.40;79.80;;;;;;7342502;19;109386;-78
2022/08/11 00:48:32;;;;;;;5.45;1.75;;;22.30;80.30;;;;;;7336908;19;111131;-78
2022/08/11 00:51:07;;;;;;;4.70;1.75;;;22.30;80.40;;;;;;7334754;19;109892;-78
2022/08/11 00:54:01;;;;;;;7.82;1.88;;;22.20;80.50;;;;;;7336765;19;110493;-79
2022/08/11 00:56:38;;;;;;;5.22;1.55;;;22.20;81.20;;;;;;7334767;19;111232;-79
2022/08/11 00:59:43;;;;;;;4.95;1.40;;;22.20;81.60;;;;;;7336553;19;110508;-79
2022/08/11 01:02:37;;;;;;;1.83;1.48;;;22.10;81.80;;;;;;7335286;19;110317;-78
2022/08/11 01:05:46;;;;;;;4.22;1.63;;;22.00;82.10;;;;;;7337310;19;111149;-78
2022/08/11 01:08:41;;;;;;;4.38;1.63;;;22.00;82.40;;;;;;7335597;19;110465;-78
2022/08/11 01:11:42;;;;;;;3.80;1.50;;;21.90;82.70;;;;;;7339817;19;110584;-78
2022/08/11 01:14:40;;;;;;;3.67;1.77;;;21.90;83.20;;;;;;7333803;19;110767;-78
2022/08/11 01:17:25;;;;;;;5.57;1.98;;;21.90;83.40;;;;;;7335863;19;110837;-78
2022/08/11 01:20:35;;;;;;;6.90;1.80;;;21.80;83.80;;;;;;7336786;19;110727;-79
2022/08/11 01:23:51;;;;;;;6.28;1.90;;;21.80;83.90;;;;;;7335814;19;110557;-77
2022/08/11 01:26:42;;;;;;;4.13;2.10;;;21.70;84.30;;;;;;7335816;19;113799;-77
2022/08/11 01:29:28;;;;;;;4.28;1.90;;;21.70;84.50;;;;;;7335818;19;111211;-77
2022/08/11 01:32:33;;;;;;;4.07;1.90;;;21.70;84.90;;;;;;7332658;19;109965;-78
2022/08/11 01:35:29;;;;;;;5.68;1.83;;;21.60;85.40;;;;;;7334066;19;110411;-77
2022/08/11 01:38:30;;;;;;;3.78;2.28;;;21.60;85.30;;;;;;7340357;19;111307;-78
2022/08/11 01:41:19;;;;;;;6.13;2.00;;;21.50;85.60;;;;;;7335780;19;110477;-77
2022/08/11 01:46:53;;;;;;;5.68;2.25;;;21.50;85.70;;;;;;7335751;19;110519;-78
2022/08/11 01:49:46;;;;;;;7.18;2.05;;;21.50;86.00;;;;;;7334734;19;110673;-78
2022/08/11 01:52:59;;;;;;;4.13;2.30;;;21.40;86.20;;;;;;7335023;19;113248;-78
2022/08/11 01:55:56;;;;;;;6.30;2.08;;;21.40;86.70;;;;;;7345216;19;109942;-78
2022/08/11 01:58:35;;;;;;;4.72;2.00;;;21.40;86.80;;;;;;7342813;19;110175;-77
2022/08/11 02:01:37;;;;;;;2.97;1.77;;;21.30;87.00;;;;;;7344552;19;110392;-78
2022/08/11 02:04:33;;;;;;;3.58;2.00;;;21.30;87.50;;;;;;7348885;19;109593;-77
2022/08/11 02:07:01;;;;;;;6.18;2.72;;;21.30;87.60;;;;;;7343044;19;111301;-78
2022/08/11 02:09:43;;;;;;;4.82;2.33;;;21.20;87.80;;;;;;7345023;19;109825;-78
2022/08/11 02:12:32;;;;;;;6.63;2.45;;;21.20;88.00;;;;;;7343292;19;110499;-78
2022/08/11 02:15:28;;;;;;;5.88;2.45;;;21.20;88.40;;;;;;7343576;19;111241;-77
2022/08/11 02:18:09;;;;;;;8.20;2.40;;;21.10;88.70;;;;;;7341564;19;110323;-78
2022/08/11 02:23:48;;;;;;;3.70;2.17;;;21.00;89.20;;;;;;7340068;19;111212;-77
2022/08/11 02:26:42;;;;;;;4.65;2.20;;;21.00;89.40;;;;;;7346764;19;110418;-78
2022/08/11 02:29:22;;;;;;;10.50;2.42;;;21.00;89.50;;;;;;7340042;19;111305;-78
2022/08/11 02:35:04;;;;;;;2.90;2.30;;;21.00;89.90;;;;;;7340157;19;111566;-77
2022/08/11 02:37:31;;;;;;;3.92;2.30;;;21.00;90.10;;;;;;7340211;19;110897;-78
2022/08/11 02:39:58;;;;;;;6.60;2.17;;;20.80;90.60;;;;;;7341001;19;109480;-77
2022/08/11 02:42:44;;;;;;;9.00;2.78;;;20.80;90.40;;;;;;7337644;19;111392;-78
2022/08/11 02:45:28;;;;;;;7.47;2.38;;;20.80;90.80;;;;;;7339896;19;110066;-78
2022/08/11 02:51:42;;;;;;;5.22;2.50;;;20.60;91.30;;;;;;7344138;19;110731;-77
2022/08/11 02:54:12;;;;;;;5.40;2.50;;;20.60;91.30;;;;;;7339675;19;110447;-77
2022/08/11 02:57:03;;;;;;;6.05;2.30;;;20.60;91.30;;;;;;7339785;19;111056;-77
2022/08/11 02:59:49;;;;;;;6.00;2.55;;;20.60;91.50;;;;;;7338906;19;111232;-78
2022/08/11 03:02:30;;;;;;;8.13;2.60;;;20.50;91.40;;;;;;7340162;19;110620;-77
2022/08/11 03:05:10;;;;;;;12.18;3.08;;;20.60;91.60;;;;;;7338851;19;110416;-78
2022/08/11 03:08:14;;;;;;;11.95;2.83;;;20.50;91.60;;;;;;7339407;19;111213;-77
2022/08/11 03:17:36;;;;;;;5.60;3.17;;;20.30;92.30;;;;;;7342095;19;111119;-78
2022/08/11 03:20:44;;;;;;;7.60;3.13;;;20.30;92.50;;;;;;7339065;19;110482;-77
2022/08/11 03:23:38;;;;;;;4.72;3.03;;;20.30;92.60;;;;;;7336408;19;111116;-77
2022/08/11 03:26:23;;;;;;;7.40;3.47;;;20.20;92.70;;;;;;7340444;19;109356;-78
2022/08/11 03:29:21;;;;;;;6.95;3.00;;;20.20;92.90;;;;;;7337973;19;110564;-77
2022/08/11 03:32:28;;;;;;;7.15;3.10;;;20.10;93.20;;;;;;7336499;19;114517;-78
2022/08/11 03:35:00;;;;;;;9.73;3.42;;;20.10;93.30;;;;;;7336882;19;109798;-77
2022/08/11 03:37:50;;;;;;;8.00;3.25;;;20.10;93.20;;;;;;7339514;19;110227;-78
2022/08/11 03:43:22;;;;;;;7.68;3.50;;;20.10;93.20;;;;;;7337312;19;109605;-78
2022/08/11 03:46:12;;;;;;;11.60;3.60;;;20.00;93.30;;;;;;7332552;19;111161;-78
2022/08/11 03:49:06;;;;;;;6.53;3.30;;;20.00;93.60;;;;;;7333437;19;110921;-78
2022/08/11 03:51:55;;;;;;;7.93;3.40;;;20.00;93.90;;;;;;7332902;19;110995;-78
2022/08/11 03:54:45;;;;;;;7.97;3.67;;;20.00;93.90;;;;;;7333831;19;111291;-78
2022/08/11 03:57:51;;;;;;;9.63;3.17;;;19.90;93.70;;;;;;7335066;19;110004;-78
2022/08/11 04:00:55;;;;;;;3.53;2.88;;;19.90;93.90;;;;;;7333560;19;111326;-78
2022/08/11 04:03:49;;;;;;;5.90;3.60;;;19.90;94.00;;;;;;7333950;19;111240;-77
2022/08/11 04:06:44;;;;;;;5.25;3.13;;;19.80;94.20;;;;;;7333791;19;111799;-78
2022/08/11 04:09:23;;;;;;;12.15;3.28;;;19.80;94.50;;;;;;7338677;19;112967;-78
2022/08/11 04:12:03;;;;;;;8.00;3.30;;;19.80;94.60;;;;;;7331150;19;109850;-77
2022/08/11 04:18:30;;;;;;;11.98;3.10;;;19.80;94.60;;;;;;7332148;19;111423;-78
2022/08/11 04:21:19;;;;;;;5.22;2.85;;;19.80;94.60;;;;;;7337373;19;109365;-77
2022/08/11 04:24:30;;;;;;;9.10;3.20;;;19.80;94.70;;;;;;7336467;19;110432;-77
2022/08/11 04:27:41;;;;;;;12.18;2.70;;;19.80;94.80;;;;;;7338523;19;110687;-78
2022/08/11 04:30:41;;;;;;;10.93;3.03;;;19.70;94.90;;;;;;7335519;19;110457;-78
2022/08/11 04:33:40;;;;;;;9.43;3.00;;;19.70;95.20;;;;;;7340541;19;110245;-78
2022/08/11 04:36:16;;;;;;;5.53;2.80;;;19.60;95.10;;;;;;7336837;19;109343;-78
2022/08/11 04:39:11;;;;;;;9.95;2.78;;;19.60;95.00;;;;;;7336265;19;110155;-78
2022/08/11 04:45:26;;;;;;;10.88;3.40;;;19.60;95.40;;;;;;7336564;19;113874;-78
2022/08/11 05:01:41;;;;;;;13.27;3.22;;;19.90;94.90;;;;;;7335790;19;110154;-77
2022/08/11 05:07:51;;;;;;;8.27;3.25;;;19.80;95.20;;;;;;7330834;19;111285;-78
2022/08/11 05:10:23;;;;;;;7.85;3.55;;;19.80;95.10;;;;;;7330800;19;111677;-78
2022/08/11 05:27:09;;;;;;;9.85;3.75;;;19.80;95.10;;;;;;7328824;19;110445;-78
2022/08/11 05:36:44;;;;;;;9.02;3.90;;;20.10;95.60;;;;;;7341794;19;110783;-79
2022/08/11 05:57:00;;;;;;;11.90;3.85;;;20.50;95.30;;;;;;7344258;19;109725;-79
2022/08/11 05:59:28;;;;;;;10.45;4.03;;;20.60;95.30;;;;;;7342992;19;109330;-80
2022/08/11 06:02:05;;;;;;;8.02;4.00;;;20.70;95.10;;;;;;7342051;19;110989;-83
2022/08/11 06:04:33;;;;;;;18.90;4.43;;;20.70;94.90;;;;;;7339340;19;109502;-80
2022/08/11 06:07:08;;;;;;;8.82;3.67;;;20.70;94.90;;;;;;7342083;19;110860;-84
2022/08/11 06:09:47;;;;;;;12.00;4.38;;;20.80;95.00;;;;;;7343392;19;117309;-79
2022/08/11 06:12:34;;;;;;;9.77;4.25;;;20.90;94.90;;;;;;7339844;19;112052;-80
2022/08/11 06:15:05;;;;;;;8.27;4.20;;;21.00;94.70;;;;;;7342215;19;110399;-81
2022/08/11 06:17:41;;;;;;;4.43;3.90;;;21.00;94.60;;;;;;7345848;19;111126;-82
2022/08/11 06:20:11;;;;;;;9.27;4.47;;;21.10;94.60;;;;;;7340943;19;110480;-82
2022/08/11 06:22:43;;;;;;;46.42;5.10;;;21.20;94.50;;;;;;7341349;19;111369;-84
2022/08/11 06:25:16;;;;;;;7.50;3.95;;;21.30;94.30;;;;;;7342732;19;109535;-80
2022/08/11 06:27:45;;;;;;;8.07;4.22;;;21.30;94.60;;;;;;7341571;19;110011;-82
2022/08/11 06:30:12;;;;;;;13.55;4.13;;;21.40;94.20;;;;;;7343408;19;111125;-80
2022/08/11 06:32:44;;;;;;;13.73;4.05;;;21.50;94.10;;;;;;7340191;19;110476;-81
2022/08/11 06:35:44;;;;;;;8.95;3.92;;;21.60;94.20;;;;;;7341963;19;109838;-80
2022/08/11 06:38:37;;;;;;;11.13;3.90;;;21.80;93.90;;;;;;7342094;19;109862;-80
2022/08/11 06:41:29;;;;;;;6.75;3.70;;;21.90;93.80;;;;;;7345076;19;109616;-80
2022/08/11 06:43:56;;;;;;;9.52;4.60;;;22.10;93.90;;;;;;7336370;19;111618;-77
2022/08/11 06:46:32;;;;;;;15.85;4.20;;;22.20;93.40;;;;;;7339834;19;110250;-77
2022/08/11 06:49:04;;;;;;;10.60;4.07;;;22.20;93.10;;;;;;7342279;19;110448;-78
2022/08/11 06:51:34;;;;;;;8.52;3.72;;;22.30;93.20;;;;;;7341836;19;111183;-77
2022/08/11 06:54:02;;;;;;;13.68;3.53;;;22.40;93.00;;;;;;7341957;19;109435;-77
2022/08/11 07:02:36;;;;;;;11.95;3.88;;;22.70;93.10;;;;;;7347616;19;109553;-76
2022/08/11 07:05:12;;;;;;;34.28;4.80;;;22.80;92.70;;;;;;7343006;19;111368;-79
2022/08/11 07:16:49;;;;;;;28.08;4.55;;;23.30;92.20;;;;;;7341173;19;110304;-78
2022/08/11 07:30:41;;;;;;;9.85;3.45;;;23.90;90.90;;;;;;7343186;19;109532;-76
2022/08/11 07:33:10;;;;;;;11.90;3.83;;;23.90;90.80;;;;;;7339782;19;109681;-77
2022/08/11 07:36:00;;;;;;;13.00;4.13;;;24.10;90.60;;;;;;7341475;19;112002;-77
2022/08/11 07:38:44;;;;;;;5.00;3.50;;;24.10;90.20;;;;;;7339802;19;110461;-76
2022/08/11 07:41:19;;;;;;;8.35;2.97;;;24.20;90.00;;;;;;7342082;19;110483;-77
2022/08/11 07:43:51;;;;;;;7.72;3.42;;;24.30;90.10;;;;;;7337097;19;110126;-77
2022/08/11 07:54:41;;;;;;;7.80;2.95;;;24.60;88.20;;;;;;7341640;19;110402;-77
2022/08/11 08:20:03;;;;;;;12.15;2.10;;;25.80;82.60;;;;;;7340275;19;111186;-79
2022/08/11 08:22:30;;;;;;;18.95;2.72;;;25.90;81.70;;;;;;7339582;19;109352;-77
2022/08/11 08:25:06;;;;;;;5.15;2.03;;;26.10;80.70;;;;;;7339895;19;110362;-77
2022/08/11 08:27:35;;;;;;;10.02;2.20;;;26.10;79.40;;;;;;7339455;19;111128;-80
2022/08/11 08:32:52;;;;;;;19.45;2.40;;;26.30;78.80;;;;;;7339527;19;110871;-80
2022/08/11 08:35:20;;;;;;;14.80;2.70;;;26.40;78.60;;;;;;7340438;19;111450;-79
2022/08/11 08:37:50;;;;;;;4.38;1.98;;;26.50;78.10;;;;;;7339994;19;109367;-80
2022/08/11 08:40:19;;;;;;;13.30;2.47;;;26.60;77.00;;;;;;7345301;19;110487;-80
2022/08/11 08:42:54;;;;;;;11.25;2.30;;;26.80;77.30;;;;;;7337372;19;110037;-79
2022/08/11 08:45:22;;;;;;;9.32;2.10;;;26.90;76.40;;;;;;7337821;19;110539;-79
2022/08/11 08:48:01;;;;;;;9.38;1.90;;;26.90;76.60;;;;;;7336610;19;111411;-82
2022/08/11 08:53:27;;;;;;;16.60;2.35;;;27.20;76.10;;;;;;7336924;19;112026;-80
2022/08/11 08:55:57;;;;;;;7.97;2.20;;;27.30;75.90;;;;;;7338761;19;110104;-81
2022/08/11 08:58:25;;;;;;;4.38;1.90;;;27.40;74.90;;;;;;7336212;19;110534;-78
2022/08/11 09:00:55;;;;;;;9.45;1.95;;;27.40;73.50;;;;;;7338645;19;110434;-78
2022/08/11 09:03:23;;;;;;;10.45;2.58;;;27.50;73.30;;;;;;7342840;19;112866;-78
2022/08/11 09:06:13;;;;;;;13.52;2.20;;;27.60;73.50;;;;;;7338967;19;112988;-80
2022/08/11 09:08:41;;;;;;;7.93;2.33;;;27.70;72.90;;;;;;7338833;19;114222;-80
2022/08/11 09:13:56;;;;;;;5.40;2.13;;;27.90;72.70;;;;;;7337189;19;110046;-79
2022/08/11 09:16:31;;;;;;;4.50;2.00;;;28.00;72.10;;;;;;7337769;19;111272;-79
2022/08/11 09:19:00;;;;;;;6.85;2.30;;;28.10;71.80;;;;;;7338400;19;109276;-78
2022/08/11 09:21:28;;;;;;;6.40;1.83;;;28.10;70.60;;;;;;7336524;19;109708;-79
2022/08/11 09:27:09;;;;;;;9.98;2.08;;;28.20;71.10;;;;;;7338681;19;110434;-78
2022/08/11 09:29:37;;;;;;;6.15;2.30;;;28.30;70.10;;;;;;7338155;19;111668;-77
2022/08/11 09:32:05;;;;;;;6.43;2.20;;;28.30;71.10;;;;;;7338101;19;109781;-78
2022/08/11 09:34:36;;;;;;;11.70;2.47;;;28.40;70.50;;;;;;7336569;19;111285;-78
2022/08/11 09:40:30;;;;;;;9.73;2.30;;;28.40;68.40;;;;;;7336991;19;110708;-77
2022/08/11 09:45:51;;;;;;;5.53;1.83;;;28.60;66.50;;;;;;7337749;19;111571;-78
2022/08/11 09:48:20;;;;;;;6.25;2.22;;;28.70;66.50;;;;;;7342399;19;109182;-77
2022/08/11 09:50:50;;;;;;;4.68;1.77;;;28.70;62.80;;;;;;7334653;19;110625;-76
2022/08/11 09:53:18;;;;;;;13.85;2.25;;;28.70;64.60;;;;;;7335584;19;112442;-82
2022/08/11 09:59:05;;;;;;;7.82;1.90;;;28.90;62.70;;;;;;7334661;19;111852;-77
2022/08/11 10:01:40;;;;;;;9.73;2.00;;;28.80;63.10;;;;;;7336845;19;110004;-81
2022/08/11 10:04:17;;;;;;;5.57;1.80;;;28.90;61.40;;;;;;7336758;19;112721;-80
2022/08/11 10:07:00;;;;;;;6.22;2.20;;;28.80;61.20;;;;;;7336990;19;111689;-78
2022/08/11 10:09:40;;;;;;;9.07;2.30;;;28.80;60.90;;;;;;7337311;19;109286;-76
2022/08/11 10:12:11;;;;;;;16.63;2.13;;;28.90;61.80;;;;;;7342396;19;110624;-77
2022/08/11 10:17:32;;;;;;;13.77;2.30;;;29.00;60.60;;;;;;7341449;19;110325;-78
2022/08/11 10:20:03;;;;;;;7.93;2.03;;;29.10;61.10;;;;;;7343534;19;114183;-76
2022/08/11 10:28:08;;;;;;;2.38;2.05;;;29.40;61.00;;;;;;7346171;19;110250;-77
2022/08/11 10:34:00;;;;;;;4.90;1.88;;;29.60;61.90;;;;;;7341504;19;110186;-77
2022/08/11 10:36:32;;;;;;;4.90;2.03;;;29.70;60.20;;;;;;7347705;19;110588;-76
2022/08/11 10:39:03;;;;;;;10.38;2.50;;;29.80;60.10;;;;;;7341482;19;110485;-81
2022/08/11 10:44:49;;;;;;;8.52;1.88;;;30.00;61.40;;;;;;7343069;19;110296;-80
2022/08/11 10:47:35;;;;;;;4.93;1.80;;;30.30;61.10;;;;;;7341653;19;109897;-82
2022/08/11 10:58:51;;;;;;;9.85;2.15;;;30.30;58.90;;;;;;7341056;19;111478;-83
2022/08/11 11:01:28;;;;;;;13.23;2.27;;;30.50;59.50;;;;;;7346246;19;110548;-79
2022/08/11 11:04:00;;;;;;;6.00;2.03;;;30.60;58.30;;;;;;7338922;19;110314;-78
2022/08/11 11:06:30;;;;;;;5.35;1.65;;;30.70;58.70;;;;;;7342064;19;111054;-81
2022/08/11 11:09:16;;;;;;;7.85;2.03;;;30.90;58.60;;;;;;7341563;19;110623;-82
2022/08/11 11:20:19;;;;;;;3.08;1.77;;;31.10;56.90;;;;;;7344045;19;113501;-77
2022/08/11 11:23:12;;;;;;;5.97;2.00;;;31.20;56.90;;;;;;7341731;19;109405;-77
2022/08/11 11:26:11;;;;;;;7.90;1.92;;;31.30;55.70;;;;;;7344658;19;111091;-78
2022/08/11 11:28:57;;;;;;;5.28;1.83;;;31.40;55.40;;;;;;7340975;19;109600;-81
2022/08/11 11:31:55;;;;;;;6.63;2.03;;;31.40;56.40;;;;;;7338619;19;111251;-82
2022/08/11 11:34:43;;;;;;;7.82;1.83;;;31.60;56.40;;;;;;7338717;19;111148;-79
2022/08/11 11:37:23;;;;;;;8.43;1.80;;;31.70;54.90;;;;;;7341075;19;109188;-76
2022/08/11 11:39:53;;;;;;;8.38;2.10;;;31.60;54.30;;;;;;7340832;19;109735;-81
2022/08/11 11:42:21;;;;;;;2.72;1.60;;;31.70;54.70;;;;;;7339351;19;110723;-81
2022/08/11 11:44:49;;;;;;;8.95;1.60;;;31.90;54.30;;;;;;7340755;19;109467;-77
2022/08/11 11:47:22;;;;;;;10.18;2.10;;;31.90;53.20;;;;;;7343013;19;110829;-81
2022/08/11 11:49:49;;;;;;;9.95;1.83;;;31.90;53.20;;;;;;7339539;19;111767;-81
2022/08/11 11:52:19;;;;;;;3.40;1.88;;;32.00;53.40;;;;;;7339867;19;109626;-78
2022/08/11 11:54:50;;;;;;;6.15;1.60;;;32.10;53.30;;;;;;7337355;19;110487;-79
2022/08/11 12:03:01;;;;;;;6.93;2.20;;;32.70;51.70;;;;;;7340226;19;110110;-84
2022/08/11 12:05:32;;;;;;;7.95;1.80;;;32.80;51.50;;;;;;7337237;19;112072;-80
2022/08/11 12:08:15;;;;;;;6.35;1.98;;;32.80;51.60;;;;;;7339908;19;112018;-78
2022/08/11 12:10:47;;;;;;;5.38;2.03;;;32.90;51.80;;;;;;7345516;19;110120;-78
2022/08/11 12:16:02;;;;;;;3.70;1.90;;;32.80;50.90;;;;;;7339580;19;112008;-83
2022/08/11 12:18:57;;;;;;;4.70;1.60;;;33.00;51.70;;;;;;7340571;19;109584;-82
2022/08/11 12:21:26;;;;;;;11.63;1.90;;;33.10;50.30;;;;;;7337572;19;110870;-83
2022/08/11 12:29:45;;;;;;;10.27;2.33;;;33.20;49.90;;;;;;7340442;19;110493;-75
2022/08/11 12:32:17;;;;;;;5.15;2.00;;;33.10;49.80;;;;;;7338382;19;110210;-76
2022/08/11 12:34:44;;;;;;;3.33;1.77;;;33.30;49.30;;;;;;7343540;19;109434;-78
2022/08/11 12:37:15;;;;;;;8.88;2.03;;;33.40;50.70;;;;;;7334657;19;114057;-77
2022/08/11 12:46:31;;;;;;;8.30;2.10;;;33.60;49.20;;;;;;7338699;19;110145;-78
2022/08/11 12:52:00;;;;;;;7.22;1.85;;;33.50;47.20;;;;;;7338063;19;110713;-78
2022/08/11 12:54:46;;;;;;;5.00;2.28;;;33.50;48.10;;;;;;7337228;19;114959;-76
2022/08/11 13:05:45;;;;;;;4.17;2.03;;;33.50;48.10;;;;;;7338978;19;110031;-78
2022/08/11 13:08:14;;;;;;;5.85;2.10;;;33.50;47.00;;;;;;7338061;19;111191;-82
2022/08/11 13:13:30;;;;;;;12.63;2.90;;;33.60;47.00;;;;;;7338693;19;110705;-76
2022/08/11 13:16:19;;;;;;;2.78;1.95;;;33.60;47.10;;;;;;7338181;19;112466;-79
2022/08/11 13:18:46;;;;;;;3.20;2.00;;;33.80;47.80;;;;;;7338206;19;109436;-76
2022/08/11 13:21:14;;;;;;;6.15;2.20;;;34.10;47.80;;;;;;7336332;19;111878;-78
2022/08/11 13:23:48;;;;;;;4.95;2.55;;;34.30;47.40;;;;;;7344582;19;111188;-80
2022/08/11 13:26:37;;;;;;;11.13;2.40;;;34.40;46.70;;;;;;7338425;19;110497;-78
2022/08/11 13:29:21;;;;;;;36.80;3.28;;;34.40;46.40;;;;;;7337927;19;114855;-77
2022/08/11 13:31:50;;;;;;;5.78;2.30;;;34.40;45.70;;;;;;7338388;19;110720;-76
2022/08/11 13:34:19;;;;;;;4.97;1.88;;;34.30;46.10;;;;;;7336819;19;109475;-78
2022/08/11 13:36:53;;;;;;;6.10;2.40;;;34.30;46.70;;;;;;7337333;19;111319;-78
2022/08/11 13:39:26;;;;;;;3.38;2.00;;;34.50;46.50;;;;;;7336635;19;109615;-78
2022/08/11 13:41:55;;;;;;;6.03;2.33;;;34.60;45.00;;;;;;7336145;19;109568;-81
2022/08/11 13:44:27;;;;;;;6.78;2.47;;;34.60;46.00;;;;;;7334422;19;111226;-83
2022/08/11 13:47:01;;;;;;;6.25;2.38;;;34.70;46.20;;;;;;7341511;19;109887;-76
2022/08/11 13:49:34;;;;;;;6.82;2.10;;;34.90;45.90;;;;;;7343744;19;111267;-81
2022/08/11 13:52:11;;;;;;;6.72;2.13;;;35.00;45.50;;;;;;7345124;19;109373;-78
2022/08/11 13:54:40;;;;;;;3.83;2.20;;;35.00;44.20;;;;;;7343435;19;109290;-81
2022/08/11 13:57:11;;;;;;;8.20;2.30;;;34.90;43.40;;;;;;7341081;19;111054;-79
2022/08/11 14:00:08;;;;;;;7.22;2.15;;;34.80;43.00;;;;;;7345298;19;109432;-81
2022/08/11 14:02:52;;;;;;;6.32;1.90;;;34.70;43.50;;;;;;7345584;19;110496;-84
2022/08/11 14:05:29;;;;;;;4.28;2.40;;;34.80;44.60;;;;;;7343902;19;111283;-87
2022/08/11 14:08:08;;;;;;;11.55;2.17;;;35.10;44.20;;;;;;7350494;19;109346;-83
2022/08/11 14:14:10;;;;;;;6.63;2.40;;;35.30;44.20;;;;;;7342674;19;109605;-80
2022/08/11 14:16:41;;;;;;;3.70;1.90;;;35.30;42.80;;;;;;7345050;19;110839;-83
2022/08/11 14:19:12;;;;;;;4.63;1.90;;;35.30;43.30;;;;;;7344546;19;110271;-83
2022/08/11 14:24:39;;;;;;;12.10;2.28;;;35.40;43.40;;;;;;7343767;19;110412;-85
2022/08/11 14:27:10;;;;;;;9.65;2.20;;;35.60;43.00;;;;;;7344053;19;109900;-85
2022/08/11 14:29:58;;;;;;;2.58;1.80;;;35.60;42.50;;;;;;7342727;19;110467;-79
2022/08/11 14:32:26;;;;;;;4.38;2.05;;;35.60;42.20;;;;;;7348108;19;111579;-81
2022/08/11 14:34:53;;;;;;;3.53;2.25;;;35.50;41.90;;;;;;7341431;19;109451;-78
2022/08/11 14:37:23;;;;;;;2.20;1.90;;;35.40;41.20;;;;;;7343190;19;109993;-77
2022/08/11 14:39:57;;;;;;;5.35;2.25;;;35.30;42.10;;;;;;7343729;19;110706;-80
2022/08/11 14:48:22;;;;;;;4.38;2.00;;;35.50;42.40;;;;;;7342770;19;112462;-82
2022/08/11 14:50:50;;;;;;;11.52;2.25;;;35.50;41.90;;;;;;7343848;19;109668;-77
2022/08/11 14:53:21;;;;;;;4.93;1.90;;;35.60;42.30;;;;;;7343640;19;112252;-78
2022/08/11 14:58:36;;;;;;;12.93;2.17;;;35.60;41.50;;;;;;7343093;19;110888;-81
2022/08/11 15:03:05;;;;;;;5.93;2.03;;;35.60;41.50;;;;;;7340780;19;110101;-80
2022/08/11 15:03:52;;;;;;;7.32;2.20;;;35.80;41.60;;;;;;7343148;19;109204;-76
2022/08/11 15:06:39;;;;;;;5.93;2.40;;;35.70;41.60;;;;;;7342061;19;112471;-80
2022/08/11 15:09:07;;;;;;;8.93;2.08;;;35.60;40.40;;;;;;7342866;19;114898;-85
2022/08/11 15:17:08;;;;;;;7.82;2.20;;;35.50;42.20;;;;;;7341116;19;111433;-80
2022/08/11 15:25:13;;;;;;;6.30;2.25;;;35.60;42.00;;;;;;7341429;19;109419;-79
2022/08/11 15:39:05;;;;;;;13.52;2.40;;;35.50;41.90;;;;;;7339400;19;110267;-77
2022/08/11 15:47:44;;;;;;;6.20;2.40;;;35.30;41.60;;;;;;7341211;19;109317;-77
2022/08/11 15:50:15;;;;;;;10.43;2.63;;;34.90;41.90;;;;;;7339881;19;110298;-78
2022/08/11 15:52:55;;;;;;;6.13;2.60;;;34.70;42.10;;;;;;7341623;19;111525;-78
2022/08/11 15:55:24;;;;;;;17.70;2.65;;;34.80;42.20;;;;;;7340030;19;109517;-78
2022/08/11 16:06:55;;;;;;;4.75;2.25;;;34.30;42.80;;;;;;7344878;19;110588;-78
2022/08/11 16:09:28;;;;;;;4.10;2.17;;;34.20;43.10;;;;;;7338671;19;109726;-77
2022/08/11 16:12:19;;;;;;;6.88;2.65;;;34.10;43.40;;;;;;7340408;19;110080;-77
2022/08/11 16:17:47;;;;;;;7.57;2.40;;;34.20;44.00;;;;;;7338429;19;109231;-76
2022/08/11 16:20:18;;;;;;;6.80;2.30;;;34.40;43.50;;;;;;7340765;19;110840;-77
2022/08/11 16:22:48;;;;;;;3.90;2.30;;;34.50;43.80;;;;;;7338267;19;110489;-79
2022/08/11 16:25:29;;;;;;;5.90;2.83;;;34.50;43.70;;;;;;7338786;19;110166;-77
2022/08/11 16:28:19;;;;;;;6.13;2.00;;;34.60;43.80;;;;;;7337527;19;110608;-77
2022/08/11 16:30:47;;;;;;;14.32;2.58;;;34.60;43.50;;;;;;7341127;19;111338;-76
2022/08/11 16:33:15;;;;;;;5.90;2.20;;;34.60;43.40;;;;;;7339203;19;110563;-76
2022/08/11 16:38:51;;;;;;;5.78;2.40;;;34.60;44.00;;;;;;7338973;19;109924;-78
2022/08/11 16:46:58;;;;;;;7.75;2.65;;;34.70;43.80;;;;;;7337441;19;113897;-77
2022/08/11 16:47:07;;;;;;;3.50;2.08;;;34.60;42.80;;;;;;7338003;19;109447;-77
2022/08/11 16:49:37;;;;;;;4.30;2.38;;;34.50;43.20;;;;;;7337879;19;111107;-77
2022/08/11 16:52:10;;;;;;;4.10;2.40;;;34.30;42.30;;;;;;7339350;19;112820;-77
2022/08/11 16:54:40;;;;;;;10.63;2.35;;;34.10;42.60;;;;;;7343982;19;110375;-78
2022/08/11 17:00:18;;;;;;;3.83;2.30;;;34.10;42.70;;;;;;7336815;19;109681;-75
2022/08/11 17:14:23;;;;;;;3.45;2.20;;;33.90;43.40;;;;;;7337216;19;111700;-76
2022/08/11 17:17:04;;;;;;;4.20;2.25;;;33.90;43.20;;;;;;7336001;19;109761;-79
2022/08/11 17:19:34;;;;;;;9.27;2.40;;;33.80;43.20;;;;;;7342712;19;110168;-77
2022/08/11 17:25:10;;;;;;;8.57;2.40;;;33.60;43.50;;;;;;7343524;19;114082;-77
2022/08/11 17:27:38;;;;;;;6.60;2.30;;;33.50;43.80;;;;;;7344516;19;111329;-80
2022/08/11 17:30:08;;;;;;;4.45;2.53;;;33.40;43.90;;;;;;7343821;19;109462;-81
2022/08/11 17:35:43;;;;;;;6.97;2.30;;;33.40;44.20;;;;;;7343447;19;112563;-78
2022/08/11 17:38:12;;;;;;;7.40;2.15;;;33.30;44.10;;;;;;7344195;19;111070;-80
2022/08/11 17:48:24;;;;;;;9.38;2.50;;;33.20;44.10;;;;;;7343044;19;110430;-77
2022/08/11 17:49:07;;;;;;;4.30;2.63;;;33.10;44.30;;;;;;7343179;19;111666;-78
2022/08/11 18:00:00;;;;;;;4.60;2.22;;;32.70;44.80;;;;;;7344322;19;109241;-76
2022/08/11 18:05:19;;;;;;;10.25;2.63;;;32.50;44.80;;;;;;7343981;19;112879;-77
